createdAt,value
2022-08-13T00:00:12.800Z,7.22
2022-08-13T00:00:45.313Z,6.35
2022-08-13T00:01:09.586Z,8.07
2022-08-13T00:01:37.692Z,7.90
2022-08-13T00:02:17.305Z,8.07
2022-08-13T00:02:43.690Z,5.97
2022-08-13T00:03:15.401Z,6.07
2022-08-13T00:04:01.304Z,6.95
2022-08-13T00:04:30.337Z,7.10
2022-08-13T00:05:41.452Z,7.07
2022-08-13T00:05:45.593Z,8.88
2022-08-13T00:06:27.641Z,7.68
2022-08-13T00:07:03.055Z,7.28
2022-08-13T00:07:25.196Z,7.93
2022-08-13T00:07:48.067Z,7.55
2022-08-13T00:08:12.940Z,6.68
2022-08-13T00:08:36.904Z,7.32
2022-08-13T00:08:59.107Z,8.57
2022-08-13T00:09:33.995Z,7.88
2022-08-13T00:10:02.518Z,7.80
2022-08-13T00:10:30.632Z,7.07
2022-08-13T00:10:53.419Z,7.17
2022-08-13T00:12:00.854Z,7.55
2022-08-13T00:12:46.346Z,6.88
2022-08-13T00:13:15.126Z,7.40
2022-08-13T00:13:41.150Z,8.27
2022-08-13T00:14:07.263Z,6.65
2022-08-13T00:14:39.816Z,6.50
2022-08-13T00:15:13.046Z,5.88
2022-08-13T00:15:40.016Z,6.75
2022-08-13T00:16:02.832Z,6.60
2022-08-13T00:16:24.681Z,6.70
2022-08-13T00:16:51.000Z,6.47
2022-08-13T00:17:14.596Z,7.03
2022-08-13T00:18:02.296Z,7.50
2022-08-13T00:18:29.806Z,6.45
2022-08-13T00:18:52.305Z,6.43
2022-08-13T00:19:14.095Z,7.35
2022-08-13T00:19:39.609Z,5.93
2022-08-13T00:20:02.648Z,6.78
2022-08-13T00:20:29.171Z,7.15
2022-08-13T00:20:57.493Z,6.43
2022-08-13T00:21:19.401Z,7.60
2022-08-13T00:21:58.831Z,7.50
2022-08-13T00:22:31.779Z,6.35
2022-08-13T00:23:00.946Z,7.03
2022-08-13T00:23:54.343Z,7.07
2022-08-13T00:24:08.569Z,6.20
2022-08-13T00:24:53.303Z,6.97
2022-08-13T00:25:17.336Z,6.82
2022-08-13T00:25:45.575Z,5.93
2022-08-13T00:26:07.782Z,6.97
2022-08-13T00:26:34.493Z,6.43
2022-08-13T00:26:58.238Z,6.32
2022-08-13T00:27:23.545Z,6.68
2022-08-13T00:28:02.334Z,6.40
2022-08-13T00:28:34.052Z,6.90
2022-08-13T00:28:56.697Z,6.47
2022-08-13T00:29:20.253Z,6.70
2022-08-13T00:29:47.817Z,6.60
2022-08-13T00:30:27.801Z,6.70
2022-08-13T00:30:54.783Z,6.25
2022-08-13T00:31:16.658Z,6.82
2022-08-13T00:31:51.227Z,6.93
2022-08-13T00:32:14.549Z,7.03
2022-08-13T00:32:39.975Z,6.63
2022-08-13T00:33:06.044Z,6.93
2022-08-13T00:33:44.018Z,7.05
2022-08-13T00:34:09.251Z,7.43
2022-08-13T00:34:31.385Z,6.55
2022-08-13T00:34:53.681Z,6.57
2022-08-13T00:35:17.868Z,7.25
2022-08-13T00:35:51.061Z,7.25
2022-08-13T00:36:29.262Z,7.57
2022-08-13T00:37:06.354Z,6.88
2022-08-13T00:37:34.288Z,8.05
2022-08-13T00:38:19.917Z,7.15
2022-08-13T00:38:45.999Z,7.65
2022-08-13T00:39:11.762Z,6.72
2022-08-13T00:40:16.329Z,6.90
2022-08-13T00:40:31.596Z,8.77
2022-08-13T00:40:58.862Z,7.05
2022-08-13T00:41:57.686Z,7.40
2022-08-13T00:42:28.728Z,8.57
2022-08-13T00:42:51.830Z,8.57
2022-08-13T00:43:15.341Z,8.38
2022-08-13T00:43:37.433Z,8.32
2022-08-13T00:43:59.463Z,8.50
2022-08-13T00:44:21.331Z,7.55
2022-08-13T00:44:43.991Z,8.43
2022-08-13T00:45:15.205Z,8.93
2022-08-13T00:45:37.572Z,10.48
2022-08-13T00:46:00.007Z,7.68
2022-08-13T00:46:22.326Z,8.75
2022-08-13T00:46:45.873Z,9.60
2022-08-13T00:47:28.908Z,8.10
2022-08-13T00:48:10.071Z,8.48
2022-08-13T00:48:46.585Z,8.18
2022-08-13T00:49:15.499Z,8.10
2022-08-13T00:49:39.492Z,9.50
2022-08-13T00:50:22.182Z,9.55
2022-08-13T00:50:44.650Z,9.65
2022-08-13T00:51:10.027Z,9.38
2022-08-13T00:51:43.048Z,10.32
2022-08-13T00:52:15.582Z,9.27
2022-08-13T00:52:40.465Z,9.75
2022-08-13T00:53:03.577Z,9.88
2022-08-13T00:53:30.825Z,9.63
2022-08-13T00:54:10.743Z,9.13
2022-08-13T00:54:33.393Z,10.25
2022-08-13T00:54:57.087Z,8.88
2022-08-13T00:55:24.042Z,9.40
2022-08-13T00:55:49.808Z,9.07
2022-08-13T00:56:16.430Z,9.38
2022-08-13T00:56:39.850Z,8.82
2022-08-13T00:57:08.333Z,8.82
2022-08-13T00:57:30.561Z,8.98
2022-08-13T00:57:53.213Z,9.57
2022-08-13T00:58:18.069Z,11.30
2022-08-13T00:58:40.728Z,10.60
2022-08-13T00:59:14.618Z,10.20
2022-08-13T00:59:43.942Z,11.65
2022-08-13T01:00:12.704Z,11.10
2022-08-13T01:00:34.645Z,10.23
2022-08-13T01:01:00.327Z,10.43
2022-08-13T01:01:35.117Z,9.18
2022-08-13T01:01:57.715Z,9.53
2022-08-13T01:02:22.252Z,9.20
2022-08-13T01:02:57.067Z,9.77
2022-08-13T01:03:20.099Z,10.38
2022-08-13T01:04:11.219Z,11.45
2022-08-13T01:04:33.754Z,10.77
2022-08-13T01:04:56.320Z,11.60
2022-08-13T01:05:21.025Z,11.65
2022-08-13T01:05:46.584Z,11.30
2022-08-13T01:06:11.713Z,12.20
2022-08-13T01:06:38.254Z,10.35
2022-08-13T01:07:02.954Z,11.10
2022-08-13T01:07:52.287Z,11.63
2022-08-13T01:08:20.065Z,10.98
2022-08-13T01:08:54.501Z,11.50
2022-08-13T01:10:16.254Z,11.32
2022-08-13T01:10:16.832Z,10.95
2022-08-13T01:10:44.036Z,11.15
2022-08-13T01:11:22.498Z,11.45
2022-08-13T01:11:46.012Z,11.48
2022-08-13T01:12:16.571Z,10.93
2022-08-13T01:12:40.949Z,11.30
2022-08-13T01:13:04.412Z,11.98
2022-08-13T01:13:32.676Z,11.93
2022-08-13T01:13:55.600Z,11.20
2022-08-13T01:14:19.068Z,11.95
2022-08-13T01:14:42.634Z,12.27
2022-08-13T01:15:09.280Z,11.30
2022-08-13T01:15:52.364Z,12.68
2022-08-13T01:16:15.661Z,10.88
2022-08-13T01:16:39.777Z,13.57
2022-08-13T01:17:07.533Z,12.88
2022-08-13T01:17:44.162Z,12.30
2022-08-13T01:18:14.650Z,11.82
2022-08-13T01:18:37.710Z,12.90
2022-08-13T01:19:04.640Z,12.52
2022-08-13T01:19:52.489Z,12.38
2022-08-13T01:20:15.474Z,13.70
2022-08-13T01:21:03.051Z,11.88
2022-08-13T01:21:39.847Z,12.23
2022-08-13T01:22:04.769Z,13.07
2022-08-13T01:22:33.764Z,11.75
2022-08-13T01:22:57.309Z,12.27
2022-08-13T01:23:33.666Z,12.15
2022-08-13T01:24:03.469Z,11.38
2022-08-13T01:24:26.042Z,12.15
2022-08-13T01:24:48.013Z,11.52
2022-08-13T01:25:10.501Z,12.45
2022-08-13T01:25:53.712Z,12.27
2022-08-13T01:26:20.165Z,12.40
2022-08-13T01:26:47.196Z,13.70
2022-08-13T01:27:11.239Z,12.02
2022-08-13T01:27:34.635Z,14.23
2022-08-13T01:27:58.648Z,14.30
2022-08-13T01:28:28.751Z,11.73
2022-08-13T01:28:52.861Z,11.18
2022-08-13T01:29:17.382Z,11.32
2022-08-13T01:29:41.470Z,14.40
2022-08-13T01:30:06.383Z,13.75
2022-08-13T01:30:31.146Z,13.65
2022-08-13T01:30:55.041Z,13.02
2022-08-13T01:31:19.339Z,11.52
2022-08-13T01:31:42.758Z,11.73
2022-08-13T01:32:08.518Z,11.98
2022-08-13T01:32:54.398Z,12.45
2022-08-13T01:33:18.621Z,13.85
2022-08-13T01:33:48.233Z,12.65
2022-08-13T01:34:22.253Z,12.25
2022-08-13T01:34:52.192Z,11.98
2022-08-13T01:35:16.561Z,11.93
2022-08-13T01:35:42.393Z,12.68
2022-08-13T01:36:09.278Z,12.15
2022-08-13T01:36:54.976Z,14.07
2022-08-13T01:37:21.412Z,12.25
2022-08-13T01:37:59.797Z,13.27
2022-08-13T01:38:27.875Z,13.02
2022-08-13T01:38:51.060Z,13.77
2022-08-13T01:39:17.696Z,11.88
2022-08-13T01:39:41.486Z,12.60
2022-08-13T01:40:06.624Z,11.45
2022-08-13T01:40:28.704Z,12.55
2022-08-13T01:40:52.781Z,11.85
2022-08-13T01:41:16.901Z,13.02
2022-08-13T01:41:54.198Z,12.20
2022-08-13T01:42:32.905Z,12.65
2022-08-13T01:42:56.956Z,11.85
2022-08-13T01:43:22.436Z,13.00
2022-08-13T01:43:46.383Z,13.93
2022-08-13T01:44:17.117Z,13.13
2022-08-13T01:44:41.165Z,12.68
2022-08-13T01:45:05.355Z,12.85
2022-08-13T01:45:29.305Z,13.00
2022-08-13T01:45:52.975Z,13.00
2022-08-13T01:46:17.928Z,15.23
2022-08-13T01:46:59.827Z,12.93
2022-08-13T01:47:57.867Z,13.43
2022-08-13T01:48:58.433Z,12.82
2022-08-13T01:49:44.051Z,13.75
2022-08-13T01:50:28.763Z,13.88
2022-08-13T01:50:54.268Z,12.48
2022-08-13T01:51:23.777Z,14.50
2022-08-13T01:51:52.154Z,12.65
2022-08-13T01:52:14.323Z,15.88
2022-08-13T01:52:46.602Z,13.43
2022-08-13T01:53:22.250Z,14.32
2022-08-13T01:53:47.977Z,12.68
2022-08-13T01:54:30.205Z,12.77
2022-08-13T01:54:52.981Z,14.35
2022-08-13T01:55:15.730Z,14.70
2022-08-13T01:56:06.077Z,15.48
2022-08-13T01:56:30.093Z,13.85
2022-08-13T01:56:55.089Z,15.32
2022-08-13T01:57:17.506Z,13.63
2022-08-13T01:57:44.585Z,12.77
2022-08-13T01:58:20.193Z,14.43
2022-08-13T01:59:09.370Z,13.45
2022-08-13T01:59:24.934Z,16.98
2022-08-13T02:00:10.119Z,13.80
2022-08-13T02:00:32.929Z,14.38
2022-08-13T02:00:58.678Z,12.77
2022-08-13T02:01:41.959Z,13.50
2022-08-13T02:02:05.557Z,12.70
2022-08-13T02:02:49.567Z,12.82
2022-08-13T02:03:17.448Z,14.50
2022-08-13T02:03:41.811Z,13.38
2022-08-13T02:04:07.546Z,13.93
2022-08-13T02:04:33.629Z,13.25
2022-08-13T02:05:01.767Z,14.00
2022-08-13T02:06:23.393Z,15.45
2022-08-13T02:06:23.490Z,13.57
2022-08-13T02:06:50.697Z,13.30
2022-08-13T02:07:16.889Z,12.82
2022-08-13T02:08:02.019Z,13.65
2022-08-13T02:08:28.074Z,12.98
2022-08-13T02:08:52.158Z,14.43
2022-08-13T02:09:57.671Z,13.77
2022-08-13T02:09:59.009Z,13.30
2022-08-13T02:10:23.582Z,13.13
2022-08-13T02:10:49.329Z,13.63
2022-08-13T02:11:11.513Z,13.65
2022-08-13T02:11:37.931Z,13.55
2022-08-13T02:12:10.622Z,12.75
2022-08-13T02:12:35.762Z,13.57
2022-08-13T02:12:57.617Z,13.23
2022-08-13T02:13:25.606Z,13.70
2022-08-13T02:13:50.004Z,14.63
2022-08-13T02:14:15.009Z,14.40
2022-08-13T02:14:46.441Z,13.60
2022-08-13T02:15:10.411Z,14.73
2022-08-13T02:15:41.316Z,13.63
2022-08-13T02:16:04.474Z,14.55
2022-08-13T02:16:45.495Z,14.32
2022-08-13T02:18:01.091Z,13.23
2022-08-13T02:18:19.988Z,13.13
2022-08-13T02:18:41.963Z,14.00
2022-08-13T02:19:23.484Z,13.15
2022-08-13T02:19:47.838Z,12.80
2022-08-13T02:20:20.096Z,13.82
2022-08-13T02:20:43.276Z,14.60
2022-08-13T02:21:11.359Z,13.00
2022-08-13T02:21:45.441Z,14.35
2022-08-13T02:22:09.195Z,13.35
2022-08-13T02:22:31.324Z,14.57
2022-08-13T02:22:55.036Z,13.40
2022-08-13T02:23:30.112Z,13.55
2022-08-13T02:24:04.798Z,14.60
2022-08-13T02:24:26.724Z,15.10
2022-08-13T02:24:58.057Z,13.90
2022-08-13T02:25:22.119Z,13.77
2022-08-13T02:25:46.630Z,13.70
2022-08-13T02:26:26.534Z,13.57
2022-08-13T02:26:54.665Z,13.18
2022-08-13T02:27:19.560Z,13.63
2022-08-13T02:27:42.770Z,14.20
2022-08-13T02:28:27.478Z,16.10
2022-08-13T02:28:49.961Z,13.80
2022-08-13T02:29:13.523Z,14.52
2022-08-13T02:29:35.757Z,14.52
2022-08-13T02:29:58.360Z,16.02
2022-08-13T02:30:20.803Z,13.70
2022-08-13T02:30:43.841Z,14.27
2022-08-13T02:31:08.265Z,14.60
2022-08-13T02:32:14.930Z,17.65
2022-08-13T02:32:25.241Z,14.52
2022-08-13T02:32:47.223Z,14.25
2022-08-13T02:33:09.372Z,14.13
2022-08-13T02:33:43.243Z,22.60
2022-08-13T02:34:08.501Z,15.48
2022-08-13T02:34:37.581Z,14.30
2022-08-13T02:34:59.620Z,15.32
2022-08-13T02:35:24.543Z,13.15
2022-08-13T02:35:50.015Z,13.55
2022-08-13T02:36:11.981Z,12.95
2022-08-13T02:36:35.913Z,13.75
2022-08-13T02:37:23.041Z,12.95
2022-08-13T02:37:46.196Z,14.50
2022-08-13T02:38:25.411Z,14.65
2022-08-13T02:38:59.545Z,14.57
2022-08-13T02:39:22.021Z,15.80
2022-08-13T02:39:45.714Z,14.05
2022-08-13T02:40:28.484Z,13.70
2022-08-13T02:41:20.617Z,14.40
2022-08-13T02:41:51.373Z,14.02
2022-08-13T02:42:16.662Z,13.40
2022-08-13T02:42:42.460Z,13.77
2022-08-13T02:43:04.652Z,14.48
2022-08-13T02:43:26.573Z,14.25
2022-08-13T02:43:58.729Z,13.95
2022-08-13T02:44:23.627Z,13.43
2022-08-13T02:44:57.444Z,13.40
2022-08-13T02:45:22.909Z,13.80
2022-08-13T02:45:49.542Z,16.27
2022-08-13T02:46:14.199Z,13.57
2022-08-13T02:46:36.074Z,14.07
2022-08-13T02:47:02.103Z,13.38
2022-08-13T02:47:33.089Z,14.00
2022-08-13T02:47:56.113Z,14.38
2022-08-13T02:48:22.284Z,15.70
2022-08-13T02:48:44.815Z,13.07
2022-08-13T02:49:17.089Z,14.07
2022-08-13T02:49:44.521Z,13.43
2022-08-13T02:50:09.122Z,15.88
2022-08-13T02:50:43.850Z,14.68
2022-08-13T02:51:10.458Z,13.85
2022-08-13T02:52:06.767Z,13.48
2022-08-13T02:52:15.976Z,14.85
2022-08-13T02:52:50.440Z,15.00
2022-08-13T02:53:30.369Z,14.27
2022-08-13T02:53:55.755Z,14.02
2022-08-13T02:54:25.102Z,13.43
2022-08-13T02:54:55.298Z,14.07
2022-08-13T02:55:24.094Z,15.15
2022-08-13T02:55:48.770Z,13.73
2022-08-13T02:56:13.294Z,13.73
2022-08-13T02:56:39.413Z,14.13
2022-08-13T02:57:01.723Z,13.43
2022-08-13T02:57:26.964Z,14.05
2022-08-13T02:57:51.759Z,15.60
2022-08-13T02:58:15.404Z,15.02
2022-08-13T02:58:37.526Z,14.00
2022-08-13T02:59:00.337Z,15.27
2022-08-13T03:00:00.790Z,14.48
2022-08-13T03:00:09.040Z,14.02
2022-08-13T03:00:34.758Z,16.02
2022-08-13T03:00:58.704Z,14.73
2022-08-13T03:01:21.182Z,14.15
2022-08-13T03:01:54.485Z,13.00
2022-08-13T03:02:20.744Z,13.75
2022-08-13T03:02:46.245Z,13.68
2022-08-13T03:03:10.702Z,13.65
2022-08-13T03:03:39.446Z,15.27
2022-08-13T03:04:01.861Z,13.00
2022-08-13T03:04:33.144Z,14.40
2022-08-13T03:04:55.513Z,14.60
2022-08-13T03:05:23.451Z,13.93
2022-08-13T03:05:59.316Z,14.65
2022-08-13T03:06:22.879Z,14.00
2022-08-13T03:06:45.848Z,14.40
2022-08-13T03:07:14.860Z,14.90
2022-08-13T03:07:45.568Z,14.73
2022-08-13T03:08:36.555Z,14.57
2022-08-13T03:08:56.951Z,14.52
2022-08-13T03:09:24.503Z,14.63
2022-08-13T03:09:47.631Z,15.18
2022-08-13T03:10:14.422Z,13.90
2022-08-13T03:10:42.363Z,14.20
2022-08-13T03:11:05.126Z,14.82
2022-08-13T03:11:26.918Z,13.50
2022-08-13T03:12:02.920Z,13.95
2022-08-13T03:12:31.805Z,14.45
2022-08-13T03:13:02.328Z,13.40
2022-08-13T03:13:29.250Z,13.70
2022-08-13T03:14:09.580Z,13.55
2022-08-13T03:14:34.905Z,15.35
2022-08-13T03:14:57.617Z,15.02
2022-08-13T03:15:24.078Z,14.52
2022-08-13T03:16:02.481Z,16.10
2022-08-13T03:16:28.578Z,13.50
2022-08-13T03:16:51.044Z,15.15
2022-08-13T03:17:22.475Z,14.32
2022-08-13T03:17:46.142Z,13.43
2022-08-13T03:18:15.998Z,14.57
2022-08-13T03:18:51.665Z,13.45
2022-08-13T03:19:15.218Z,14.07
2022-08-13T03:19:38.180Z,14.20
2022-08-13T03:20:17.333Z,14.45
2022-08-13T03:20:43.049Z,14.82
2022-08-13T03:21:05.462Z,14.30
2022-08-13T03:21:43.120Z,15.10
2022-08-13T03:22:07.483Z,16.20
2022-08-13T03:22:29.257Z,16.25
2022-08-13T03:22:57.017Z,15.02
2022-08-13T03:23:25.763Z,16.05
2022-08-13T03:23:50.206Z,14.75
2022-08-13T03:24:22.584Z,16.05
2022-08-13T03:24:51.942Z,17.48
2022-08-13T03:25:13.778Z,14.82
2022-08-13T03:25:37.362Z,17.73
2022-08-13T03:25:59.645Z,17.05
2022-08-13T03:26:22.794Z,14.93
2022-08-13T03:26:47.278Z,16.05
2022-08-13T03:27:17.217Z,15.18
2022-08-13T03:27:40.313Z,14.82
2022-08-13T03:28:02.960Z,14.40
2022-08-13T03:28:24.800Z,14.82
2022-08-13T03:28:55.641Z,14.82
2022-08-13T03:29:30.360Z,14.38
2022-08-13T03:30:12.693Z,15.77
2022-08-13T03:30:44.766Z,15.82
2022-08-13T03:31:18.565Z,16.85
2022-08-13T03:31:52.763Z,14.93
2022-08-13T03:32:31.511Z,14.50
2022-08-13T03:32:55.204Z,15.25
2022-08-13T03:33:18.930Z,15.95
2022-08-13T03:34:00.298Z,15.20
2022-08-13T03:34:23.699Z,16.55
2022-08-13T03:34:45.927Z,14.90
2022-08-13T03:35:42.810Z,15.65
2022-08-13T03:36:05.832Z,16.77
2022-08-13T03:36:31.141Z,14.55
2022-08-13T03:36:54.782Z,14.70
2022-08-13T03:37:20.042Z,16.42
2022-08-13T03:37:43.991Z,16.33
2022-08-13T03:38:11.782Z,17.10
2022-08-13T03:38:34.290Z,14.82
2022-08-13T03:38:57.434Z,14.98
2022-08-13T03:39:19.415Z,15.80
2022-08-13T03:39:43.020Z,15.02
2022-08-13T03:40:06.071Z,14.75
2022-08-13T03:40:52.160Z,17.65
2022-08-13T03:41:15.673Z,15.02
2022-08-13T03:41:51.041Z,14.93
2022-08-13T03:42:30.619Z,16.08
2022-08-13T03:43:15.755Z,16.88
2022-08-13T03:43:53.629Z,16.13
2022-08-13T03:44:16.076Z,16.13
2022-08-13T03:44:42.184Z,17.20
2022-08-13T03:45:05.327Z,17.48
2022-08-13T03:45:30.131Z,16.70
2022-08-13T03:45:57.657Z,15.95
2022-08-13T03:46:22.984Z,16.10
2022-08-13T03:46:51.308Z,16.13
2022-08-13T03:47:30.936Z,16.15
2022-08-13T03:47:54.019Z,17.98
2022-08-13T03:48:17.238Z,17.00
2022-08-13T03:48:39.907Z,18.30
2022-08-13T03:49:03.427Z,16.70
2022-08-13T03:49:29.026Z,17.15
2022-08-13T03:49:52.215Z,16.60
2022-08-13T03:50:15.881Z,16.23
2022-08-13T03:50:37.941Z,16.45
2022-08-13T03:51:02.941Z,16.02
2022-08-13T03:51:35.165Z,17.90
2022-08-13T03:51:59.712Z,17.65
2022-08-13T03:52:33.082Z,16.75
2022-08-13T03:53:05.491Z,15.45
2022-08-13T03:53:43.440Z,15.80
2022-08-13T03:54:06.861Z,17.17
2022-08-13T03:54:32.806Z,15.88
2022-08-13T03:55:00.707Z,16.25
2022-08-13T03:55:23.663Z,19.20
2022-08-13T03:55:45.935Z,16.40
2022-08-13T03:56:12.206Z,16.00
2022-08-13T03:56:35.712Z,15.43
2022-08-13T03:57:01.668Z,16.23
2022-08-13T03:57:26.279Z,15.68
2022-08-13T03:58:03.827Z,15.55
2022-08-13T03:58:31.796Z,15.50
2022-08-13T03:58:55.717Z,16.17
2022-08-13T03:59:18.816Z,15.85
2022-08-13T03:59:47.136Z,16.00
2022-08-13T04:00:13.929Z,16.45
2022-08-13T04:00:38.842Z,15.75
2022-08-13T04:01:03.052Z,16.23
2022-08-13T04:01:26.155Z,16.42
2022-08-13T04:01:57.273Z,16.52
2022-08-13T04:02:19.732Z,15.20
2022-08-13T04:02:43.233Z,14.80
2022-08-13T04:03:17.736Z,15.88
2022-08-13T04:03:44.401Z,14.50
2022-08-13T04:04:06.716Z,16.02
2022-08-13T04:04:36.205Z,15.90
2022-08-13T04:04:58.411Z,17.25
2022-08-13T04:05:38.199Z,14.90
2022-08-13T04:06:05.687Z,17.10
2022-08-13T04:06:27.668Z,15.15
2022-08-13T04:06:49.719Z,15.05
2022-08-13T04:07:15.932Z,15.88
2022-08-13T04:07:41.361Z,15.60
2022-08-13T04:08:09.734Z,15.93
2022-08-13T04:08:38.472Z,14.45
2022-08-13T04:09:01.186Z,15.65
2022-08-13T04:09:22.963Z,15.43
2022-08-13T04:09:55.713Z,15.88
2022-08-13T04:10:21.852Z,18.83
2022-08-13T04:10:51.062Z,15.98
2022-08-13T04:11:21.341Z,16.27
2022-08-13T04:11:44.432Z,14.43
2022-08-13T04:12:10.778Z,15.10
2022-08-13T04:12:32.666Z,14.80
2022-08-13T04:12:56.209Z,15.75
2022-08-13T04:14:00.920Z,16.30
2022-08-13T04:14:04.150Z,15.80
2022-08-13T04:14:44.878Z,16.35
2022-08-13T04:15:10.734Z,16.20
2022-08-13T04:15:43.898Z,15.13
2022-08-13T04:16:21.909Z,16.90
2022-08-13T04:16:52.539Z,16.88
2022-08-13T04:17:16.542Z,16.90
2022-08-13T04:17:39.057Z,15.50
2022-08-13T04:18:00.974Z,15.18
2022-08-13T04:18:29.644Z,14.45
2022-08-13T04:18:53.150Z,14.65
2022-08-13T04:19:17.674Z,15.45
2022-08-13T04:19:42.392Z,14.95
2022-08-13T04:20:11.634Z,15.60
2022-08-13T04:20:36.143Z,14.75
2022-08-13T04:20:58.996Z,13.80
2022-08-13T04:21:22.799Z,15.10
2022-08-13T04:21:46.068Z,13.65
2022-08-13T04:22:11.403Z,13.35
2022-08-13T04:22:36.265Z,14.23
2022-08-13T04:22:58.430Z,14.50
2022-08-13T04:23:20.950Z,13.90
2022-08-13T04:23:44.943Z,16.48
2022-08-13T04:24:12.194Z,15.13
2022-08-13T04:24:37.803Z,14.55
2022-08-13T04:25:24.966Z,13.75
2022-08-13T04:25:51.197Z,14.38
2022-08-13T04:26:31.322Z,13.20
2022-08-13T04:26:56.214Z,15.63
2022-08-13T04:27:18.521Z,15.25
2022-08-13T04:27:40.340Z,14.18
2022-08-13T04:28:03.749Z,13.65
2022-08-13T04:28:27.492Z,13.73
2022-08-13T04:28:49.265Z,13.98
2022-08-13T04:29:12.824Z,15.85
2022-08-13T04:29:49.983Z,15.68
2022-08-13T04:30:12.562Z,14.20
2022-08-13T04:30:39.432Z,14.18
2022-08-13T04:31:06.370Z,13.80
2022-08-13T04:31:47.752Z,14.25
2022-08-13T04:32:10.250Z,13.25
2022-08-13T04:32:57.555Z,13.80
2022-08-13T04:33:22.053Z,14.52
2022-08-13T04:34:34.001Z,15.40
2022-08-13T04:34:34.095Z,13.90
2022-08-13T04:35:16.299Z,14.27
2022-08-13T04:35:41.064Z,14.35
2022-08-13T04:36:05.870Z,16.90
2022-08-13T04:36:28.287Z,15.43
2022-08-13T04:36:50.913Z,14.50
2022-08-13T04:37:19.505Z,13.90
2022-08-13T04:37:46.108Z,16.55
2022-08-13T04:38:17.791Z,15.00
2022-08-13T04:38:42.792Z,14.68
2022-08-13T04:39:05.564Z,15.23
2022-08-13T04:39:28.538Z,15.00
2022-08-13T04:40:28.895Z,14.45
2022-08-13T04:40:54.386Z,15.82
2022-08-13T04:41:16.686Z,14.48
2022-08-13T04:41:39.429Z,15.18
2022-08-13T04:42:01.492Z,15.07
2022-08-13T04:42:33.468Z,15.63
2022-08-13T04:43:06.874Z,16.00
2022-08-13T04:43:29.593Z,16.30
2022-08-13T04:44:00.828Z,15.48
2022-08-13T04:44:23.174Z,15.32
2022-08-13T04:44:49.864Z,14.27
2022-08-13T04:45:15.002Z,14.40
2022-08-13T04:45:38.267Z,14.30
2022-08-13T04:46:01.696Z,14.68
2022-08-13T04:46:26.877Z,14.88
2022-08-13T04:46:51.147Z,15.23
2022-08-13T04:47:12.904Z,14.40
2022-08-13T04:47:35.203Z,14.00
2022-08-13T04:48:01.402Z,14.10
2022-08-13T04:48:28.047Z,14.95
2022-08-13T04:48:49.966Z,14.07
2022-08-13T04:49:13.231Z,14.43
2022-08-13T04:49:37.696Z,14.25
2022-08-13T04:50:10.751Z,16.48
2022-08-13T04:50:35.712Z,15.57
2022-08-13T04:50:58.357Z,14.68
2022-08-13T04:51:24.287Z,14.73
2022-08-13T04:51:46.093Z,14.15
2022-08-13T04:52:08.693Z,13.80
2022-08-13T04:52:30.986Z,14.80
2022-08-13T04:52:53.380Z,15.15
2022-08-13T04:53:24.617Z,15.82
2022-08-13T04:53:50.784Z,14.05
2022-08-13T04:54:12.894Z,15.60
2022-08-13T04:54:34.910Z,14.35
2022-08-13T04:54:56.806Z,13.55
2022-08-13T04:55:19.454Z,13.73
2022-08-13T04:56:08.571Z,14.35
2022-08-13T04:56:23.452Z,13.68
2022-08-13T04:56:45.828Z,14.10
2022-08-13T04:57:07.777Z,15.93
2022-08-13T04:57:55.852Z,15.07
2022-08-13T04:58:17.297Z,14.88
2022-08-13T04:58:39.179Z,14.98
2022-08-13T04:59:03.815Z,15.88
2022-08-13T04:59:26.036Z,15.73
2022-08-13T04:59:50.920Z,15.43
2022-08-13T05:00:21.427Z,16.40
2022-08-13T05:00:52.165Z,17.95
2022-08-13T05:01:47.938Z,16.60
2022-08-13T05:02:01.596Z,16.10
2022-08-13T05:02:25.129Z,17.42
2022-08-13T05:02:48.247Z,16.50
2022-08-13T05:03:18.364Z,14.85
2022-08-13T05:03:43.486Z,14.98
2022-08-13T05:04:11.842Z,15.90
2022-08-13T05:04:52.504Z,14.70
2022-08-13T05:05:17.814Z,15.13
2022-08-13T05:05:44.546Z,14.23
2022-08-13T05:06:13.725Z,15.75
2022-08-13T05:06:35.993Z,14.75
2022-08-13T05:06:58.430Z,16.10
2022-08-13T05:07:20.254Z,15.80
2022-08-13T05:07:53.626Z,14.05
2022-08-13T05:08:18.814Z,15.88
2022-08-13T05:08:41.376Z,14.73
2022-08-13T05:09:04.327Z,14.43
2022-08-13T05:09:30.844Z,15.10
2022-08-13T05:09:54.755Z,13.95
2022-08-13T05:10:16.933Z,13.82
2022-08-13T05:10:42.636Z,15.60
2022-08-13T05:11:14.467Z,15.23
2022-08-13T05:11:43.516Z,14.65
2022-08-13T05:12:06.279Z,14.32
2022-08-13T05:12:42.115Z,14.85
2022-08-13T05:13:28.658Z,14.23
2022-08-13T05:13:59.725Z,15.57
2022-08-13T05:14:21.705Z,14.85
2022-08-13T05:14:44.220Z,14.73
2022-08-13T05:15:42.403Z,14.07
2022-08-13T05:16:00.737Z,16.08
2022-08-13T05:16:23.800Z,15.60
2022-08-13T05:16:53.953Z,13.57
2022-08-13T05:17:21.774Z,14.40
2022-08-13T05:17:46.717Z,13.30
2022-08-13T05:18:09.929Z,14.65
2022-08-13T05:18:39.423Z,15.82
2022-08-13T05:19:08.121Z,13.85
2022-08-13T05:19:35.536Z,15.82
2022-08-13T05:20:02.291Z,15.05
2022-08-13T05:20:36.014Z,14.50
2022-08-13T05:21:04.853Z,13.50
2022-08-13T05:21:33.794Z,14.38
2022-08-13T05:22:17.772Z,15.20
2022-08-13T05:24:39.177Z,16.92
2022-08-13T05:26:07.983Z,13.82
2022-08-13T05:26:10.004Z,13.98
2022-08-13T05:26:17.366Z,14.57
2022-08-13T05:26:19.146Z,15.30
2022-08-13T05:27:01.019Z,15.00
2022-08-13T05:27:16.616Z,13.40
2022-08-13T05:27:41.552Z,14.55
2022-08-13T05:28:10.020Z,14.77
2022-08-13T05:28:32.655Z,15.00
2022-08-13T05:28:54.994Z,13.82
2022-08-13T05:30:03.524Z,15.00
2022-08-13T05:30:32.197Z,15.27
2022-08-13T05:30:56.007Z,15.63
2022-08-13T05:31:21.593Z,16.27
2022-08-13T05:31:55.688Z,16.15
2022-08-13T05:32:20.582Z,13.50
2022-08-13T05:32:47.247Z,13.95
2022-08-13T05:33:23.301Z,14.35
2022-08-13T05:34:04.184Z,14.32
2022-08-13T05:34:30.575Z,14.80
2022-08-13T05:34:52.920Z,13.57
2022-08-13T05:35:16.315Z,15.27
2022-08-13T05:38:09.240Z,14.93
2022-08-13T05:38:10.834Z,17.05
2022-08-13T05:38:12.140Z,14.35
2022-08-13T05:38:19.650Z,14.68
2022-08-13T05:38:31.658Z,14.52
2022-08-13T05:38:56.978Z,14.03
2022-08-13T05:39:19.029Z,14.93
2022-08-13T05:39:48.975Z,14.48
2022-08-13T05:40:11.421Z,12.85
2022-08-13T05:40:37.963Z,15.07
2022-08-13T05:41:03.206Z,15.75
2022-08-13T05:41:27.678Z,14.60
2022-08-13T05:42:06.662Z,14.13
2022-08-13T05:42:29.783Z,15.35
2022-08-13T05:42:51.657Z,16.88
2022-08-13T05:43:18.098Z,16.77
2022-08-13T05:43:39.889Z,14.13
2022-08-13T05:44:02.611Z,13.30
2022-08-13T05:44:24.727Z,14.07
2022-08-13T05:44:51.096Z,15.38
2022-08-13T05:45:18.641Z,17.13
2022-08-13T05:45:53.834Z,14.88
2022-08-13T05:46:30.353Z,14.70
2022-08-13T05:46:52.294Z,15.48
2022-08-13T05:47:16.523Z,14.40
2022-08-13T05:47:39.402Z,16.58
2022-08-13T05:48:01.908Z,14.70
2022-08-13T05:48:28.092Z,12.98
2022-08-13T05:48:59.184Z,15.05
2022-08-13T05:49:24.756Z,14.02
2022-08-13T05:50:14.470Z,15.73
2022-08-13T05:50:39.554Z,14.05
2022-08-13T05:51:04.764Z,13.82
2022-08-13T05:52:33.302Z,15.57
2022-08-13T05:52:36.258Z,13.25
2022-08-13T05:53:03.415Z,16.02
2022-08-13T05:53:27.751Z,13.75
2022-08-13T05:56:09.148Z,17.20
2022-08-13T05:56:10.782Z,14.90
2022-08-13T05:56:10.870Z,16.00
2022-08-13T05:56:17.940Z,15.40
2022-08-13T05:56:40.568Z,16.52
2022-08-13T05:57:05.155Z,14.77
2022-08-13T05:57:27.634Z,15.55
2022-08-13T05:57:54.110Z,15.40
2022-08-13T05:58:18.259Z,14.98
2022-08-13T05:58:51.539Z,14.35
2022-08-13T05:59:47.773Z,13.95
2022-08-13T06:00:30.591Z,13.85
2022-08-13T06:01:15.447Z,13.98
2022-08-13T06:01:56.957Z,13.80
2022-08-13T06:02:38.683Z,14.55
2022-08-13T06:03:19.411Z,15.15
2022-08-13T06:04:31.834Z,14.90
2022-08-13T06:04:42.111Z,14.35
2022-08-13T06:05:09.053Z,15.57
2022-08-13T06:05:46.962Z,14.60
2022-08-13T06:06:14.213Z,14.80
2022-08-13T06:06:43.271Z,17.55
2022-08-13T06:07:14.993Z,15.02
2022-08-13T06:07:41.195Z,14.32
2022-08-13T06:08:13.000Z,15.63
2022-08-13T06:08:49.864Z,15.07
2022-08-13T06:09:11.999Z,17.20
2022-08-13T06:09:34.342Z,16.50
2022-08-13T06:09:59.465Z,15.20
2022-08-13T06:10:21.426Z,15.15
2022-08-13T06:10:45.067Z,15.38
2022-08-13T06:11:11.779Z,16.73
2022-08-13T06:12:26.262Z,15.93
2022-08-13T06:12:29.092Z,15.15
2022-08-13T06:12:57.878Z,15.70
2022-08-13T06:13:27.643Z,16.00
2022-08-13T06:14:05.322Z,15.80
2022-08-13T06:14:34.099Z,17.38
2022-08-13T06:14:58.963Z,17.40